Time;durP1;ratioP1;P1;durP2;ratioP2;P2;SDS_P1;SDS_P2;PMS_P1;PMS_P2;Temp;Humidity;BMP_temperature;BMP_pressure;BME280_temperature;BME280_humidity;BME280_pressure;Samples;Min_cycle;Max_cycle;Signal;HPM_P1;HPM_P2
2022/07/05 00:00:36;;;;;;;9.00;6.00;;;;;;;-145.18;100.00;46660.41;4895135;29;20085;-80
2022/07/05 00:03:01;;;;;;;8.03;6.13;;;;;;;-145.18;100.00;46660.41;4894919;29;20454;-79
2022/07/05 00:05:27;;;;;;;10.80;6.33;;;;;;;-145.18;100.00;46660.41;4895485;29;20045;-78
2022/07/05 00:07:53;;;;;;;8.40;5.00;;;;;;;-145.18;100.00;46660.41;4895118;29;20155;-79
2022/07/05 00:10:18;;;;;;;6.30;4.70;;;;;;;-145.18;100.00;46660.41;4895452;29;20033;-79
2022/07/05 00:12:43;;;;;;;7.20;5.87;;;;;;;-145.18;100.00;46660.41;4894681;29;20119;-79
2022/07/05 00:15:09;;;;;;;9.77;5.90;;;;;;;-145.18;100.00;46660.41;4895330;29;20442;-79
2022/07/05 00:17:34;;;;;;;7.70;5.20;;;;;;;-145.18;100.00;46660.41;4895086;29;20466;-80
2022/07/05 00:20:00;;;;;;;7.80;6.27;;;;;;;-145.18;100.00;46660.41;4895044;29;20096;-79
2022/07/05 00:22:25;;;;;;;13.90;8.10;;;;;;;-145.18;100.00;46660.41;4895060;29;20048;-80
2022/07/05 00:24:51;;;;;;;13.13;8.47;;;;;;;-145.18;100.00;46660.41;4895080;29;20103;-81
2022/07/05 00:27:16;;;;;;;11.70;9.03;;;;;;;-145.18;100.00;46660.41;4889276;29;20112;-79
2022/07/05 00:29:42;;;;;;;9.37;7.77;;;;;;;-145.18;100.00;46660.41;4876548;29;20483;-80
2022/07/05 00:32:07;;;;;;;10.00;7.67;;;;;;;-145.18;100.00;46660.41;4876204;29;20029;-79
2022/07/05 00:34:33;;;;;;;11.37;7.73;;;;;;;-145.18;100.00;46660.41;4866670;29;20038;-80
2022/07/05 00:36:58;;;;;;;8.10;6.90;;;;;;;-145.18;100.00;46660.41;4872658;29;20037;-80
2022/07/05 00:39:23;;;;;;;12.97;7.50;;;;;;;-145.18;100.00;46660.41;4876718;29;20451;-79
2022/07/05 00:41:49;;;;;;;10.03;7.40;;;;;;;-145.18;100.00;46660.41;4875942;29;20121;-79
2022/07/05 00:44:14;;;;;;;12.87;8.40;;;;;;;-145.18;100.00;46660.41;4876401;29;20117;-80
2022/07/05 00:46:42;;;;;;;8.77;7.87;;;;;;;-145.18;100.00;46660.41;4875908;29;20041;-80
2022/07/05 00:49:08;;;;;;;11.93;8.33;;;;;;;-145.18;100.00;46660.41;4876583;29;20526;-79
2022/07/05 00:51:36;;;;;;;12.37;8.97;;;;;;;-145.18;100.00;46660.41;4879790;29;20079;-79
2022/07/05 00:54:02;;;;;;;13.97;9.77;;;;;;;-145.18;100.00;46660.41;4880084;29;20510;-79
2022/07/05 00:56:28;;;;;;;15.70;9.90;;;;;;;-145.18;100.00;46660.41;4879723;29;20116;-80
2022/07/05 00:58:53;;;;;;;12.43;10.40;;;;;;;-145.18;100.00;46660.41;4879899;29;20543;-79
2022/07/05 01:01:19;;;;;;;13.90;9.43;;;;;;;-145.18;100.00;46660.41;4879541;29;21505;-81
2022/07/05 01:03:46;;;;;;;13.40;9.33;;;;;;;-145.18;100.00;46660.41;4880004;29;20071;-81
2022/07/05 01:06:13;;;;;;;10.10;7.20;;;;;;;-145.18;100.00;46658.44;4880145;29;20037;-81
2022/07/05 01:08:42;;;;;;;10.23;7.43;;;;;;;-145.18;100.00;46660.41;4879805;29;20037;-81
2022/07/05 01:11:10;;;;;;;8.83;7.10;;;;;;;-145.18;100.00;46660.41;4893297;29;20043;-80
2022/07/05 01:13:36;;;;;;;10.90;7.20;;;;;;;-145.18;100.00;46660.41;4884979;29;20135;-80
2022/07/05 01:16:02;;;;;;;10.30;7.80;;;;;;;-145.18;100.00;46660.41;4887590;29;20079;-80
2022/07/05 01:18:29;;;;;;;10.40;7.87;;;;;;;-145.18;100.00;46660.41;4896098;29;20033;-80
2022/07/05 01:20:54;;;;;;;10.77;7.70;;;;;;;-145.18;100.00;46660.41;4889372;29;20403;-80
2022/07/05 01:23:20;;;;;;;10.43;7.57;;;;;;;-145.18;100.00;46660.41;4879071;29;20033;-80
2022/07/05 01:25:47;;;;;;;9.40;7.53;;;;;;;-145.18;100.00;46658.44;4879746;29;20107;-80
2022/07/05 01:28:13;;;;;;;11.13;8.93;;;;;;;-145.18;100.00;46660.41;4879403;29;20040;-80
2022/07/05 01:30:39;;;;;;;10.67;8.80;;;;;;;-145.18;100.00;46660.41;4879459;29;20487;-80
2022/07/05 01:33:06;;;;;;;11.27;8.77;;;;;;;-145.18;100.00;46660.41;4878857;29;20084;-79
2022/07/05 01:35:32;;;;;;;13.13;9.70;;;;;;;-145.18;100.00;46660.41;4892607;29;20025;-79
2022/07/05 01:37:57;;;;;;;10.83;8.10;;;;;;;-145.18;100.00;46660.41;4878094;29;20085;-80
2022/07/05 01:40:23;;;;;;;12.87;8.97;;;;;;;-145.18;100.00;46660.41;4884371;29;20114;-80
2022/07/05 01:42:48;;;;;;;11.93;9.00;;;;;;;-145.18;100.00;46660.41;4887185;29;20048;-79
2022/07/05 01:45:38;;;;;;;10.80;9.23;;;;;;;-145.18;100.00;46660.41;4879272;29;20049;-79
2022/07/05 01:48:05;;;;;;;14.73;9.73;;;;;;;-145.18;100.00;46660.41;4878597;29;20659;-79
2022/07/05 01:50:36;;;;;;;13.13;9.90;;;;;;;-145.18;100.00;46660.41;4879327;29;20116;-78
2022/07/05 01:53:03;;;;;;;13.13;9.00;;;;;;;-145.18;100.00;46660.41;4878536;29;20525;-79
2022/07/05 01:55:28;;;;;;;12.53;8.47;;;;;;;-145.18;100.00;46660.41;4878936;29;20036;-79
2022/07/05 01:57:54;;;;;;;11.40;9.23;;;;;;;-145.18;100.00;46660.41;4878587;29;20033;-78
2022/07/05 02:02:56;;;;;;;13.23;9.27;;;;;;;-145.18;100.00;46656.50;5141400;23;19981;-78
2022/07/05 02:05:21;;;;;;;13.80;10.43;;;;;;;-145.18;100.00;46654.53;4857827;29;20398;-77
2022/07/05 02:07:48;;;;;;;11.33;9.13;;;;;;;-145.18;100.00;46658.44;4859482;29;20029;-78
2022/07/05 02:10:13;;;;;;;10.63;9.63;;;;;;;-145.18;100.00;46660.41;4859790;29;20029;-77
2022/07/05 02:12:38;;;;;;;11.37;9.43;;;;;;;-145.18;100.00;46660.41;4843170;29;20064;-78
2022/07/05 02:15:04;;;;;;;12.83;9.70;;;;;;;-145.18;100.00;46658.44;4859905;29;20609;-78
2022/07/05 02:17:30;;;;;;;13.13;10.07;;;;;;;-145.18;100.00;46658.44;4840314;29;20042;-79
2022/07/05 02:19:55;;;;;;;13.20;9.70;;;;;;;-145.18;100.00;46654.53;4854718;29;20037;-78
2022/07/05 02:22:21;;;;;;;12.23;10.47;;;;;;;-145.18;100.00;46658.44;4859776;29;20034;-78
2022/07/05 02:24:46;;;;;;;13.87;10.37;;;;;;;-145.18;100.00;46660.41;4860516;29;20045;-77
2022/07/05 02:27:11;;;;;;;15.17;10.57;;;;;;;-145.18;100.00;46660.41;4859323;29;20032;-78
2022/07/05 02:29:37;;;;;;;14.70;10.73;;;;;;;-145.18;100.00;46660.41;4840628;29;20030;-78
2022/07/05 02:32:02;;;;;;;13.87;10.87;;;;;;;-145.18;100.00;46656.50;4855360;29;20038;-78
2022/07/05 02:34:28;;;;;;;14.53;10.43;;;;;;;-145.18;100.00;46656.50;4860054;29;20449;-78
2022/07/05 02:36:53;;;;;;;14.20;10.67;;;;;;;-145.18;100.00;46656.50;4859041;29;20033;-77
2022/07/05 02:39:18;;;;;;;12.60;10.30;;;;;;;-145.18;100.00;46656.50;4840359;29;20113;-78
2022/07/05 02:41:44;;;;;;;13.50;10.80;;;;;;;-145.18;100.00;46660.41;4851242;29;20072;-79
2022/07/05 02:44:09;;;;;;;13.77;10.87;;;;;;;-145.18;100.00;46656.50;4842689;29;20146;-79
2022/07/05 02:46:34;;;;;;;11.47;9.70;;;;;;;-145.18;100.00;46660.41;4860047;29;20124;-79
2022/07/05 02:49:00;;;;;;;11.43;10.23;;;;;;;-145.18;100.00;46660.41;4839609;29;20048;-78
2022/07/05 02:51:25;;;;;;;12.60;10.37;;;;;;;-145.18;100.00;46658.44;4859703;29;20108;-78
2022/07/05 02:53:51;;;;;;;12.67;11.27;;;;;;;-145.18;100.00;46660.41;4859195;29;20048;-78
2022/07/05 02:56:16;;;;;;;19.20;12.00;;;;;;;-145.18;100.00;46660.41;4859430;29;20069;-78
2022/07/05 02:58:41;;;;;;;14.60;11.03;;;;;;;-145.18;100.00;46660.41;4859173;29;20030;-78
2022/07/05 03:01:07;;;;;;;13.83;11.43;;;;;;;-145.18;100.00;46660.41;4859008;29;20045;-77
2022/07/05 03:03:32;;;;;;;14.07;11.87;;;;;;;-145.18;100.00;46660.41;4859124;29;20437;-77
2022/07/05 03:05:58;;;;;;;12.57;11.03;;;;;;;-145.18;100.00;46658.44;4859030;29;20041;-77
2022/07/05 03:08:23;;;;;;;13.73;11.07;;;;;;;-145.18;100.00;46656.50;4859019;29;20034;-80
2022/07/05 03:10:48;;;;;;;14.33;11.03;;;;;;;-145.18;100.00;46660.41;4859405;29;20037;-79
2022/07/05 03:13:14;;;;;;;15.20;12.03;;;;;;;-145.18;100.00;46660.41;4857880;29;20044;-78
2022/07/05 03:15:39;;;;;;;13.77;11.07;;;;;;;-145.18;100.00;46660.41;4859135;29;20037;-78
2022/07/05 03:18:04;;;;;;;13.17;11.53;;;;;;;-145.18;100.00;46660.41;4858336;29;20755;-77
2022/07/05 03:20:30;;;;;;;16.00;11.50;;;;;;;-145.18;100.00;46658.44;4845819;29;20045;-77
2022/07/05 03:22:55;;;;;;;13.93;11.03;;;;;;;-145.18;100.00;46660.41;4870384;29;20033;-78
2022/07/05 03:25:21;;;;;;;15.30;11.27;;;;;;;-145.18;100.00;46660.41;4860225;29;20064;-78
2022/07/05 03:27:46;;;;;;;16.27;11.93;;;;;;;-145.18;100.00;46658.44;4858699;29;20049;-78
2022/07/05 03:30:12;;;;;;;15.13;11.27;;;;;;;-145.18;100.00;46658.44;4858693;29;20065;-77
2022/07/05 03:32:37;;;;;;;13.07;11.67;;;;;;;-145.18;100.00;46660.41;4858483;29;20102;-79
2022/07/05 03:35:02;;;;;;;13.93;10.87;;;;;;;-145.18;100.00;46656.50;4858505;29;20065;-80
2022/07/05 03:37:28;;;;;;;13.63;10.97;;;;;;;-145.18;100.00;46660.41;4858616;29;20094;-79
2022/07/05 03:39:53;;;;;;;15.27;11.50;;;;;;;-145.18;100.00;46660.41;4858648;29;20162;-81
2022/07/05 03:42:18;;;;;;;16.33;11.20;;;;;;;-145.18;100.00;46658.44;4858503;29;20044;-82
2022/07/05 03:44:44;;;;;;;15.23;11.37;;;;;;;-145.18;100.00;46660.41;4855561;29;20260;-77
2022/07/05 03:47:09;;;;;;;13.17;11.43;;;;;;;-145.18;100.00;46660.41;4842989;29;20070;-77
2022/07/05 03:49:34;;;;;;;13.93;10.87;;;;;;;-145.18;100.00;46660.41;4840411;29;20057;-76
2022/07/05 03:52:00;;;;;;;15.50;10.97;;;;;;;-145.18;100.00;46660.41;4842592;29;20038;-76
2022/07/05 03:54:25;;;;;;;12.73;10.90;;;;;;;-145.18;100.00;46660.41;4842404;29;20038;-77
2022/07/05 03:56:51;;;;;;;15.13;11.23;;;;;;;-145.18;100.00;46660.41;4839614;29;20029;-77
2022/07/05 03:59:16;;;;;;;16.37;11.20;;;;;;;-145.18;100.00;46658.44;4843459;29;20454;-76
2022/07/05 04:01:41;;;;;;;15.77;10.73;;;;;;;-145.18;100.00;46660.41;4831275;29;20083;-79
2022/07/05 04:04:07;;;;;;;14.93;11.13;;;;;;;-145.18;100.00;46660.41;4843310;29;20427;-78
2022/07/05 04:06:32;;;;;;;17.70;11.60;;;;;;;-145.18;100.00;46660.41;4847031;29;20036;-79
2022/07/05 04:08:57;;;;;;;16.80;11.07;;;;;;;-145.18;100.00;46658.44;4840454;29;20372;-78
2022/07/05 04:11:23;;;;;;;16.17;11.50;;;;;;;-145.18;100.00;46660.41;4857798;29;20073;-79
2022/07/05 04:13:48;;;;;;;15.03;11.23;;;;;;;-145.18;100.00;46660.41;4856969;29;20491;-79
2022/07/05 04:16:13;;;;;;;15.20;11.87;;;;;;;-145.18;100.00;46660.41;4853048;29;20201;-79
2022/07/05 04:18:39;;;;;;;13.50;11.17;;;;;;;-145.18;100.00;46660.41;4856553;29;20170;-79
2022/07/05 04:21:05;;;;;;;17.57;12.40;;;;;;;-145.18;100.00;46660.41;4858245;29;20044;-79
2022/07/05 04:23:31;;;;;;;16.97;11.87;;;;;;;-145.18;100.00;46660.41;4857247;29;20026;-78
2022/07/05 04:25:56;;;;;;;16.40;11.70;;;;;;;-145.18;100.00;46660.41;4858140;29;20490;-79
2022/07/05 04:28:21;;;;;;;15.43;12.33;;;;;;;-145.18;100.00;46660.41;4857879;29;20108;-79
2022/07/05 04:30:47;;;;;;;15.47;13.07;;;;;;;-145.18;100.00;46658.44;4865398;29;20037;-80
2022/07/05 04:33:12;;;;;;;15.33;12.73;;;;;;;-145.18;100.00;46658.44;4854090;29;20047;-79
2022/07/05 04:35:38;;;;;;;16.97;12.27;;;;;;;-145.18;100.00;46656.50;4850507;29;20645;-79
2022/07/05 04:38:03;;;;;;;15.40;12.10;;;;;;;-145.18;100.00;46654.53;4855476;29;20154;-79
2022/07/05 04:40:29;;;;;;;16.03;12.03;;;;;;;-145.18;100.00;46656.50;4857068;29;20479;-79
2022/07/05 04:42:55;;;;;;;17.13;12.10;;;;;;;-145.18;100.00;46654.53;4858292;29;20056;-79
2022/07/05 04:45:20;;;;;;;13.27;11.10;;;;;;;-145.18;100.00;46660.41;4862290;29;20037;-79
2022/07/05 04:47:45;;;;;;;14.00;10.23;;;;;;;-145.18;100.00;46658.44;4844927;29;20376;-79
2022/07/05 04:50:11;;;;;;;14.93;11.30;;;;;;;-145.18;100.00;46660.41;4858067;29;20041;-80
2022/07/05 04:52:36;;;;;;;16.57;10.73;;;;;;;-145.18;100.00;46656.50;4852464;29;20134;-80
2022/07/05 04:55:03;;;;;;;15.30;11.83;;;;;;;-145.18;100.00;46658.44;4826622;29;20126;-79
2022/07/05 04:57:39;;;;;;;16.30;11.37;;;;;;;-145.18;100.00;46658.44;4853082;29;20395;-79
2022/07/05 05:00:07;;;;;;;16.37;12.83;;;;;;;-145.18;100.00;46660.41;4857925;29;20030;-80
2022/07/05 05:02:32;;;;;;;12.83;11.27;;;;;;;-145.18;100.00;46652.59;4857139;29;20132;-79
2022/07/05 05:04:57;;;;;;;18.37;11.87;;;;;;;-145.18;100.00;46656.50;4857661;29;20132;-80
2022/07/05 05:07:23;;;;;;;14.70;10.97;;;;;;;-145.18;100.00;46656.50;4857727;29;20177;-80
2022/07/05 05:09:48;;;;;;;14.10;11.53;;;;;;;-145.18;100.00;46660.41;4857940;29;20042;-80
2022/07/05 05:12:14;;;;;;;13.93;11.67;;;;;;;-145.18;100.00;46652.59;4857530;29;20045;-81
2022/07/05 05:14:39;;;;;;;15.27;11.87;;;;;;;-145.18;100.00;46658.44;4843984;29;20064;-80
2022/07/05 05:17:04;;;;;;;15.23;12.60;;;;;;;-145.18;100.00;46654.53;4857440;29;20124;-79
2022/07/05 05:19:30;;;;;;;16.97;12.00;;;;;;;-145.18;100.00;46660.41;4857477;29;20034;-80
2022/07/05 05:21:55;;;;;;;18.07;13.33;;;;;;;-145.18;100.00;46623.28;4857396;29;20037;-79
2022/07/05 05:24:20;;;;;;;16.67;13.70;;;;;;;-145.18;100.00;46652.59;4840852;29;20529;-79
2022/07/05 05:26:47;;;;;;;20.73;12.43;;;;;;;-145.18;100.00;46654.53;4857390;29;20278;-80
2022/07/05 05:29:12;;;;;;;16.00;13.20;;;;;;;-145.18;100.00;46654.53;4858119;29;20033;-79
2022/07/05 05:31:37;;;;;;;14.20;12.07;;;;;;;-145.18;100.00;46650.63;4857764;29;20038;-78
2022/07/05 05:34:03;;;;;;;20.43;13.93;;;;;;;-145.18;100.00;46615.47;4857733;29;20056;-79
2022/07/05 05:36:28;;;;;;;17.43;13.20;;;;;;;-145.18;100.00;46615.47;4859481;29;20076;-80
2022/07/05 05:38:53;;;;;;;15.10;12.33;;;;;;;-145.18;100.00;46613.50;4860737;29;20037;-79
2022/07/05 05:41:19;;;;;;;17.43;12.53;;;;;;;-145.18;100.00;46615.47;4861336;29;20402;-79
2022/07/05 05:43:45;;;;;;;22.67;13.03;;;;;;;-145.18;100.00;46617.41;4861050;29;20080;-79
2022/07/05 05:46:10;;;;;;;15.57;13.03;;;;;;;-145.18;100.00;46611.56;4861114;29;20040;-79
2022/07/05 05:48:35;;;;;;;14.87;12.50;;;;;;;-145.18;100.00;46617.41;4844283;29;20137;-79
2022/07/05 05:51:01;;;;;;;21.97;12.60;;;;;;;-145.18;100.00;46611.56;4861484;29;20040;-80
2022/07/05 05:53:26;;;;;;;19.50;13.00;;;;;;;-145.18;100.00;46611.56;4860436;29;20070;-79
2022/07/05 05:55:51;;;;;;;17.10;12.93;;;;;;;-145.18;100.00;46617.41;4859999;29;20069;-79
2022/07/05 05:58:23;;;;;;;18.17;12.53;;;;;;;-145.18;100.00;46615.47;4860488;29;20037;-79
2022/07/05 06:00:51;;;;;;;17.83;13.10;;;;;;;-145.18;100.00;46617.41;4860941;29;20557;-79
2022/07/05 06:03:21;;;;;;;17.20;13.67;;;;;;;-145.18;100.00;46617.41;4855598;29;20447;-80
2022/07/05 06:05:46;;;;;;;19.37;14.03;;;;;;;-145.18;100.00;46656.50;4858540;29;20034;-80
2022/07/05 06:08:12;;;;;;;17.77;13.43;;;;;;;-145.18;100.00;46656.50;4859847;29;20026;-79
2022/07/05 06:10:38;;;;;;;21.63;14.37;;;;;;;-145.18;100.00;46619.38;4859246;29;20037;-79
2022/07/05 06:13:06;;;;;;;19.93;15.63;;;;;;;-145.18;100.00;46613.50;4859459;29;20576;-80
2022/07/05 06:15:32;;;;;;;20.97;14.57;;;;;;;-145.18;100.00;46609.59;4866761;29;20059;-79
2022/07/05 06:17:58;;;;;;;19.27;14.00;;;;;;;-145.18;100.00;46609.59;4865409;29;20037;-79
2022/07/05 06:20:29;;;;;;;20.47;15.63;;;;;;;-145.18;100.00;46609.59;4859468;29;20508;-79
2022/07/05 06:22:55;;;;;;;20.10;13.83;;;;;;;-145.18;100.00;46609.59;4859580;29;20554;-81
2022/07/05 06:25:22;;;;;;;21.13;14.57;;;;;;;-145.18;100.00;46615.47;4849283;29;20042;-79
2022/07/05 06:27:50;;;;;;;15.80;13.57;;;;;;;-145.18;100.00;46617.41;4859290;29;20033;-79
2022/07/05 06:30:20;;;;;;;18.53;13.53;;;;;;;-145.18;100.00;46613.50;4865672;29;20026;-78
2022/07/05 06:32:47;;;;;;;20.70;13.87;;;;;;;-145.18;100.00;46613.50;4858731;29;20174;-79
2022/07/05 06:35:14;;;;;;;18.53;13.37;;;;;;;-145.18;100.00;46615.47;4858652;29;20034;-79
2022/07/05 06:37:51;;;;;;;17.93;12.93;;;;;;;-145.18;100.00;46617.41;4853145;29;20033;-79
2022/07/05 06:40:19;;;;;;;18.60;11.77;;;;;;;-145.18;100.00;46621.31;4848352;29;20082;-79
2022/07/05 06:42:45;;;;;;;19.07;12.20;;;;;;;-145.18;100.00;46619.38;4859323;29;20045;-78
2022/07/05 06:45:11;;;;;;;19.80;12.60;;;;;;;-145.18;100.00;46621.31;4857894;29;20094;-78
2022/07/05 06:47:37;;;;;;;16.13;10.73;;;;;;;-145.18;100.00;46621.31;4857175;29;20398;-79
2022/07/05 06:50:03;;;;;;;21.33;11.37;;;;;;;-145.18;100.00;46627.19;4858805;29;20038;-79
2022/07/05 06:52:29;;;;;;;16.87;10.47;;;;;;;-145.18;100.00;46629.13;4859221;29;20033;-78
2022/07/05 06:54:55;;;;;;;14.93;10.07;;;;;;;-145.18;100.00;46633.06;4858745;29;20040;-78
2022/07/05 06:57:21;;;;;;;13.00;8.90;;;;;;;-145.18;100.00;46633.06;4856439;29;20038;-78
2022/07/05 06:59:47;;;;;;;13.87;9.10;;;;;;;-145.18;100.00;46636.94;4858790;29;20480;-79
2022/07/05 07:02:13;;;;;;;13.23;7.70;;;;;;;-145.18;100.00;46638.91;4824885;29;20041;-79
2022/07/05 07:04:38;;;;;;;10.97;6.70;;;;;;;-145.18;100.00;46644.78;4858567;29;20092;-79
2022/07/05 07:07:03;;;;;;;11.70;7.20;;;;;;;-145.18;100.00;46646.72;4858782;29;20045;-79
2022/07/05 07:09:29;;;;;;;14.27;7.33;;;;;;;-145.18;100.00;46644.78;4858397;29;20490;-78
2022/07/05 07:11:55;;;;;;;12.90;8.20;;;;;;;-145.18;100.00;46650.63;4858675;29;20514;-79
2022/07/05 07:14:21;;;;;;;15.43;7.80;;;;;;;-145.18;100.00;46648.69;4837881;29;20125;-78
2022/07/05 07:16:46;;;;;;;13.10;9.77;;;;;;;-145.18;100.00;46646.72;4838421;29;20141;-79
2022/07/05 07:19:12;;;;;;;11.83;9.10;;;;;;;-145.18;100.00;46638.91;4845404;29;20037;-79
2022/07/05 07:21:38;;;;;;;15.67;8.70;;;;;;;-145.18;100.00;46644.78;4858070;29;20097;-79
2022/07/05 07:24:04;;;;;;;12.73;7.10;;;;;;;-145.18;100.00;46642.81;4833606;29;20049;-78
2022/07/05 07:26:30;;;;;;;12.07;6.43;;;;;;;-145.18;100.00;46640.88;4858491;29;20052;-77
2022/07/05 07:28:55;;;;;;;11.97;6.83;;;;;;;-145.18;100.00;46642.81;4863771;29;20033;-79
2022/07/05 07:31:20;;;;;;;11.27;6.70;;;;;;;-145.18;100.00;46640.88;4866117;29;20033;-80
2022/07/05 07:33:46;;;;;;;11.57;6.30;;;;;;;-145.18;100.00;46633.06;4858109;29;20177;-79
2022/07/05 07:36:12;;;;;;;13.67;5.90;;;;;;;-145.18;100.00;46638.91;4859538;29;20025;-80
2022/07/05 07:38:38;;;;;;;10.53;5.47;;;;;;;-145.18;100.00;46640.88;4859211;29;20033;-80
2022/07/05 07:41:03;;;;;;;9.13;5.37;;;;;;;-145.18;100.00;46644.78;4857271;29;20089;-78
2022/07/05 07:43:29;;;;;;;11.77;5.93;;;;;;;-145.18;100.00;46646.72;4857432;29;20070;-79
2022/07/05 07:45:54;;;;;;;10.33;6.10;;;;;;;-145.18;100.00;46642.81;4854732;29;20097;-79
2022/07/05 07:48:20;;;;;;;9.63;6.60;;;;;;;-145.18;100.00;46640.88;4860524;29;20030;-79
2022/07/05 07:50:45;;;;;;;12.43;7.07;;;;;;;-145.18;100.00;46638.91;4857887;29;20041;-78
2022/07/05 07:53:11;;;;;;;11.90;7.10;;;;;;;-145.18;100.00;46638.91;4857031;29;20052;-80
2022/07/05 07:55:36;;;;;;;14.30;7.53;;;;;;;-145.18;100.00;46638.91;4858612;29;20072;-78
2022/07/05 07:58:03;;;;;;;20.90;8.40;;;;;;;-145.18;100.00;46642.81;4857056;29;20034;-80
2022/07/05 08:00:29;;;;;;;12.53;8.33;;;;;;;-145.18;100.00;46636.94;4838915;29;20754;-78
2022/07/05 08:02:54;;;;;;;19.63;9.37;;;;;;;-145.18;100.00;46640.88;4853837;29;20045;-78
2022/07/05 08:05:19;;;;;;;16.47;9.40;;;;;;;-145.18;100.00;46638.91;4841107;29;20115;-79
2022/07/05 08:07:45;;;;;;;12.43;7.90;;;;;;;-145.18;100.00;46635.00;4857632;29;20037;-79
2022/07/05 08:10:10;;;;;;;12.30;7.30;;;;;;;-145.18;100.00;46642.81;4856885;29;20059;-78
2022/07/05 08:12:35;;;;;;;20.10;8.27;;;;;;;-145.18;100.00;46646.72;4857846;29;20113;-78
2022/07/05 08:15:01;;;;;;;12.77;8.23;;;;;;;-145.18;100.00;46648.69;4856946;29;20738;-78
2022/07/05 08:17:26;;;;;;;20.57;11.67;;;;;;;-145.18;100.00;46650.63;4857353;29;20037;-79
2022/07/05 08:22:35;;;;;;;16.33;11.83;;;;;;;-145.18;100.00;46654.53;4858013;29;20048;-78
2022/07/05 08:25:01;;;;;;;18.27;11.40;;;;;;;-145.18;100.00;46650.63;4858667;29;20045;-79
2022/07/05 08:27:26;;;;;;;16.70;12.60;;;;;;;-145.18;100.00;46656.50;4865314;29;20033;-78
2022/07/05 08:29:52;;;;;;;15.07;12.10;;;;;;;-145.18;100.00;46652.59;4857499;29;20033;-78
2022/07/05 08:32:17;;;;;;;15.23;12.27;;;;;;;-145.18;100.00;46646.72;4857189;29;20120;-78
2022/07/05 08:34:43;;;;;;;18.33;12.77;;;;;;;-145.18;100.00;46644.78;4857189;29;20094;-77
2022/07/05 08:37:08;;;;;;;16.13;11.50;;;;;;;-145.18;100.00;46644.78;4856933;29;20045;-79
2022/07/05 08:39:35;;;;;;;21.47;12.27;;;;;;;-145.18;100.00;46646.72;4857164;29;20129;-79
2022/07/05 08:42:01;;;;;;;22.03;11.90;;;;;;;-145.18;100.00;46644.78;4857419;29;20506;-78
2022/07/05 08:44:32;;;;;;;18.07;11.40;;;;;;;-145.18;100.00;46644.78;4856877;29;20045;-79
2022/07/05 08:47:01;;;;;;;15.73;11.27;;;;;;;-145.18;100.00;46656.50;4857356;29;20034;-79
2022/07/05 08:49:28;;;;;;;16.03;10.53;;;;;;;-145.18;100.00;46662.34;4856834;29;20077;-77
2022/07/05 08:51:54;;;;;;;19.87;13.57;;;;;;;-145.18;100.00;46652.59;4857716;29;20153;-78
2022/07/05 08:54:22;;;;;;;16.87;10.60;;;;;;;-145.18;100.00;46646.72;4857013;29;20038;-78
2022/07/05 08:56:47;;;;;;;17.93;11.37;;;;;;;-145.18;100.00;46654.53;4862417;29;20029;-79
2022/07/05 08:59:13;;;;;;;12.97;10.10;;;;;;;-145.18;100.00;46660.41;4856269;29;20045;-79
2022/07/05 09:01:44;;;;;;;13.00;7.90;;;;;;;-145.18;100.00;46660.41;4857745;29;20052;-79
2022/07/05 09:04:11;;;;;;;11.17;6.47;;;;;;;-145.18;100.00;46656.50;4855457;29;20673;-79
2022/07/05 09:06:39;;;;;;;13.83;5.97;;;;;;;-145.18;100.00;46660.41;4856622;29;20048;-78
2022/07/05 09:09:06;;;;;;;12.43;5.70;;;;;;;-145.18;100.00;46652.59;4855470;29;20743;-78
2022/07/05 09:11:34;;;;;;;7.20;4.90;;;;;;;-145.18;100.00;46654.53;4858212;29;20037;-79
2022/07/05 09:14:02;;;;;;;8.77;4.47;;;;;;;-145.18;100.00;46642.81;4858798;29;20439;-78
2022/07/05 09:16:27;;;;;;;5.70;3.77;;;;;;;-145.18;100.00;46631.09;4860752;29;20060;-78
2022/07/05 09:18:54;;;;;;;7.30;3.77;;;;;;;-145.18;100.00;46631.09;4853992;29;20471;-79
2022/07/05 09:21:23;;;;;;;10.47;3.87;;;;;;;-145.18;100.00;46582.25;4859441;29;20037;-79
2022/07/05 09:23:59;;;;;;;8.00;4.20;;;;;;;-145.18;100.00;46554.91;4858966;29;20038;-78
2022/07/05 09:26:32;;;;;;;;;;;;;;;-145.18;100.00;46549.06;4859946;29;20128;-78
2022/07/05 09:28:58;;;;;;;7.53;3.23;;;;;;;-145.18;100.00;46551.00;4853907;29;19927;-78
2022/07/05 09:31:28;;;;;;;5.47;3.30;;;;;;;-145.18;100.00;46531.47;4859118;29;20037;-78
2022/07/05 09:33:54;;;;;;;7.50;3.70;;;;;;;-145.18;100.00;46547.09;4858582;29;20042;-79
2022/07/05 09:36:19;;;;;;;5.03;2.90;;;;;;;-145.18;100.00;46539.28;4859304;29;20044;-79
2022/07/05 09:38:50;;;;;;;9.27;3.10;;;;;;;-145.18;100.00;46527.56;4858743;29;20033;-78
2022/07/05 09:41:16;;;;;;;8.67;3.30;;;;;;;-145.18;100.00;46529.53;4859372;29;20041;-78
2022/07/05 09:43:41;;;;;;;6.87;3.17;;;;;;;-145.18;100.00;46531.47;4860921;29;20081;-78
2022/07/05 09:46:07;;;;;;;5.33;3.37;;;;;;;-145.18;100.00;46535.38;4858998;29;20072;-79
2022/07/05 09:48:34;;;;;;;8.13;3.13;;;;;;;-145.18;100.00;46521.72;4858951;29;20069;-79
2022/07/05 09:51:11;;;;;;;7.40;3.20;;;;;;;-145.18;100.00;46515.84;4858674;29;20064;-78
2022/07/05 09:53:50;;;;;;;7.17;4.03;;;;;;;-145.18;100.00;46527.56;4858863;29;20120;-78
2022/07/05 09:56:16;;;;;;;4.43;3.03;;;;;;;-145.18;100.00;46537.34;4858935;29;20423;-79
2022/07/05 09:58:41;;;;;;;6.07;2.60;;;;;;;-145.18;100.00;46539.28;4858606;29;20398;-78
2022/07/05 10:01:26;;;;;;;7.03;3.60;;;;;;;-145.18;100.00;46562.72;4858229;29;20041;-77
2022/07/05 10:04:01;;;;;;;16.00;4.10;;;;;;;-145.18;100.00;46527.56;4822042;29;1109351;-78
2022/07/05 10:06:28;;;;;;;8.45;3.28;;;;;;;-145.18;100.00;46539.28;4860104;29;20486;-79
2022/07/05 10:08:53;;;;;;;5.20;2.50;;;;;;;-145.18;100.00;46552.97;4859614;29;20041;-78
2022/07/05 10:11:21;;;;;;;6.20;2.93;;;;;;;-145.18;100.00;46547.09;4859154;29;20444;-78
2022/07/05 10:13:51;;;;;;;8.97;2.60;;;;;;;-145.18;100.00;46554.91;4839698;29;20690;-76
2022/07/05 10:16:18;;;;;;;4.23;2.80;;;;;;;-145.18;100.00;46820.56;4857893;29;20046;-78
2022/07/05 10:18:46;;;;;;;6.57;3.00;;;;;;;-145.18;100.00;46957.31;4859740;29;20624;-78
2022/07/05 10:21:16;;;;;;;4.57;2.40;;;;;;;-145.18;100.00;47199.56;4859242;29;20074;-77
2022/07/05 10:23:48;;;;;;;4.87;2.00;;;;;;;-145.18;100.00;46636.94;4859298;29;20041;-78
2022/07/05 10:26:15;;;;;;;5.90;2.20;;;;;;;-145.18;100.00;46633.06;4859085;29;20037;-78
2022/07/05 10:28:45;;;;;;;4.07;1.80;;;;;;;-145.18;100.00;46629.13;4859006;29;20049;-79
2022/07/05 10:31:12;;;;;;;7.87;2.07;;;;;;;-145.18;100.00;46617.41;4859400;29;20042;-78
2022/07/05 10:33:39;;;;;;;4.07;2.37;;;;;;;-145.18;100.00;46595.94;4858874;29;20045;-79
2022/07/05 10:36:05;;;;;;;3.63;1.70;;;;;;;-145.18;100.00;46584.22;4859445;29;20033;-79
2022/07/05 10:38:36;;;;;;;5.30;2.13;;;;;;;-145.18;100.00;46590.06;4858644;29;20120;-79
2022/07/05 10:41:04;;;;;;;4.90;2.07;;;;;;;-145.18;100.00;46558.81;4857785;29;20041;-77
2022/07/05 10:43:30;;;;;;;4.87;2.07;;;;;;;-145.18;100.00;46883.09;4858779;29;20086;-77
2022/07/05 10:45:56;;;;;;;6.43;1.80;;;;;;;-145.18;100.00;47144.84;4862048;29;20029;-77
2022/07/05 10:48:26;;;;;;;5.60;2.37;;;;;;;-145.18;100.00;47066.72;4842623;29;20045;-78
2022/07/05 10:50:56;;;;;;;9.50;2.40;;;;;;;-145.18;100.00;47135.09;4859115;29;20487;-78
2022/07/05 10:53:23;;;;;;;6.77;1.77;;;;;;;-145.18;100.00;47203.47;4859187;29;20116;-78
2022/07/05 10:55:58;;;;;;;7.87;2.53;;;;;;;-145.18;100.00;47211.28;4854330;29;20422;-78
2022/07/05 10:58:36;;;;;;;7.13;1.67;;;;;;;-145.18;100.00;47248.41;4859256;29;20128;-77
2022/07/05 11:01:20;;;;;;;3.17;1.70;;;;;;;-145.18;100.00;47252.31;4853234;29;20029;-78